createdAt,value
2023-08-25T00:01:51.377Z,94160.16
2023-08-25T00:04:18.762Z,94167.34
2023-08-25T00:06:45.485Z,94158.56
2023-08-25T00:09:14.193Z,94154.84
2023-08-25T00:11:40.905Z,94161.16
2023-08-25T00:14:09.124Z,94154.63
2023-08-25T00:16:37.224Z,94149.84
2023-08-25T00:19:03.966Z,94149.44
2023-08-25T00:21:33.493Z,94147.81
2023-08-25T00:24:01.732Z,94146.13
2023-08-25T00:26:30.172Z,94149.69
2023-08-25T00:28:57.847Z,94149.19
2023-08-25T00:31:25.426Z,94145.47
2023-08-25T00:33:52.779Z,94139.88
2023-08-25T00:36:19.922Z,94142.00
2023-08-25T00:38:46.882Z,94140.41
2023-08-25T00:41:13.640Z,94142.06
2023-08-25T00:43:40.587Z,94144.38
2023-08-25T00:46:08.397Z,94138.59
2023-08-25T00:48:35.505Z,94139.19
2023-08-25T00:51:02.684Z,94138.84
2023-08-25T00:53:29.723Z,94134.47
2023-08-25T00:55:56.758Z,94131.78
2023-08-25T00:58:24.842Z,94134.25
2023-08-25T01:00:52.051Z,94125.44
2023-08-25T01:03:19.313Z,94127.16
2023-08-25T01:05:49.083Z,94132.50
2023-08-25T01:08:17.260Z,94133.16
2023-08-25T01:11:13.532Z,94137.09
2023-08-25T01:14:02.363Z,94136.16
2023-08-25T01:16:33.540Z,94125.31
2023-08-25T01:19:00.851Z,94127.22
2023-08-25T01:21:30.900Z,94127.59
2023-08-25T01:24:13.602Z,94128.38
2023-08-25T01:26:40.328Z,94123.16
2023-08-25T01:29:10.040Z,94126.59
2023-08-25T01:31:36.863Z,94123.56
2023-08-25T01:34:03.691Z,94122.63
2023-08-25T01:36:35.982Z,94119.03
2023-08-25T01:39:04.935Z,94121.25
2023-08-25T01:41:44.415Z,94118.22
2023-08-25T01:44:15.930Z,94111.72
2023-08-25T01:46:47.853Z,94110.56
2023-08-25T01:49:17.686Z,94100.84
2023-08-25T01:51:44.514Z,94109.09
2023-08-25T01:54:12.781Z,94095.13
2023-08-25T01:56:41.231Z,94089.97
2023-08-25T01:59:08.310Z,94085.00
2023-08-25T02:01:35.053Z,94091.69
2023-08-25T02:04:01.851Z,94092.41
2023-08-25T02:06:31.690Z,94087.47
2023-08-25T02:08:58.426Z,94088.63
2023-08-25T02:11:25.156Z,94081.78
2023-08-25T02:13:53.170Z,94075.28
2023-08-25T02:16:19.991Z,94074.69
2023-08-25T02:18:48.253Z,94072.56
2023-08-25T02:21:15.299Z,94068.41
2023-08-25T02:23:42.014Z,94073.75
2023-08-25T02:26:09.103Z,94074.69
2023-08-25T02:28:36.373Z,94073.38
2023-08-25T02:31:03.680Z,94068.41
2023-08-25T02:33:31.289Z,94067.44
2023-08-25T02:35:58.357Z,94072.63
2023-08-25T02:38:25.336Z,94072.59
2023-08-25T02:41:03.219Z,94071.06
2023-08-25T02:43:30.321Z,94068.03
2023-08-25T02:45:59.626Z,94069.75
2023-08-25T02:48:26.444Z,94068.69
2023-08-25T02:50:56.138Z,94061.00
2023-08-25T02:53:22.872Z,94060.06
2023-08-25T02:55:52.378Z,94041.63
2023-08-25T02:58:19.093Z,94037.34
2023-08-25T03:00:45.839Z,94032.94
2023-08-25T03:03:13.745Z,94028.28
2023-08-25T03:05:40.638Z,94024.47
2023-08-25T03:08:08.904Z,94030.28
2023-08-25T03:10:36.359Z,94037.56
2023-08-25T03:13:06.083Z,94030.38
2023-08-25T03:15:33.774Z,94022.25
2023-08-25T03:18:01.238Z,94032.19
2023-08-25T03:20:28.104Z,94035.94
2023-08-25T03:22:55.277Z,94020.81
2023-08-25T03:25:24.390Z,94025.97
2023-08-25T03:27:53.986Z,94021.41
2023-08-25T03:30:21.298Z,94023.47
2023-08-25T03:32:48.048Z,94025.72
2023-08-25T03:35:17.984Z,94025.72
2023-08-25T03:37:45.001Z,94034.88
2023-08-25T03:40:14.474Z,94035.63
2023-08-25T03:42:41.625Z,94031.47
2023-08-25T03:45:11.470Z,94031.81
2023-08-25T03:47:38.614Z,94027.78
2023-08-25T03:50:05.932Z,94034.31
2023-08-25T03:52:32.979Z,94039.56
2023-08-25T03:55:11.830Z,94050.63
2023-08-25T03:57:59.729Z,94046.69
2023-08-25T04:00:26.502Z,94046.06
2023-08-25T04:02:53.557Z,94046.16
2023-08-25T04:05:20.655Z,94042.22
2023-08-25T04:07:47.391Z,94039.53
2023-08-25T04:10:15.755Z,94039.63
2023-08-25T04:12:42.895Z,94036.41
2023-08-25T04:15:12.480Z,94037.59
2023-08-25T04:17:39.797Z,94041.50
2023-08-25T04:20:08.441Z,94034.84
2023-08-25T04:22:36.348Z,94032.19
2023-08-25T04:25:03.102Z,94030.03
2023-08-25T04:27:30.210Z,94020.97
2023-08-25T04:29:58.212Z,94032.34
2023-08-25T04:32:25.735Z,94028.34
2023-08-25T04:34:52.760Z,94028.84
2023-08-25T04:37:20.017Z,94024.78
2023-08-25T04:39:47.337Z,94028.22
2023-08-25T04:42:14.078Z,94030.88
2023-08-25T04:44:41.378Z,94036.22
2023-08-25T04:47:08.438Z,94039.41
2023-08-25T04:49:38.180Z,94044.19
2023-08-25T04:52:05.618Z,94048.19
2023-08-25T04:54:32.428Z,94046.16
2023-08-25T04:56:59.568Z,94057.84
2023-08-25T04:59:29.280Z,94064.75
2023-08-25T05:01:57.258Z,94078.72
2023-08-25T05:04:25.247Z,94090.56
2023-08-25T05:06:54.744Z,94081.69
2023-08-25T05:09:22.240Z,94099.19
2023-08-25T05:11:49.010Z,94092.59
2023-08-25T05:14:15.733Z,94086.13
2023-08-25T05:16:43.324Z,94092.56
2023-08-25T05:19:10.141Z,94107.59
2023-08-25T05:21:36.946Z,94116.66
2023-08-25T05:27:26.874Z,94139.59
2023-08-25T05:29:53.957Z,94135.13
2023-08-25T05:32:20.702Z,94153.13
2023-08-25T05:34:47.430Z,94170.28
2023-08-25T05:37:27.341Z,94203.44
2023-08-25T05:39:54.076Z,94246.44
2023-08-25T05:42:20.830Z,94245.50
2023-08-25T05:44:47.722Z,94242.63
2023-08-25T05:47:14.536Z,94223.28
2023-08-25T05:49:41.312Z,94229.13
2023-08-25T05:52:08.044Z,94238.88
2023-08-25T05:54:34.787Z,94237.06
2023-08-25T05:57:01.531Z,94240.78
2023-08-25T05:59:28.335Z,94235.03
2023-08-25T06:01:55.167Z,94222.53
2023-08-25T06:04:21.959Z,94226.09
2023-08-25T06:06:48.703Z,94236.91
2023-08-25T06:09:15.437Z,94228.47
2023-08-25T06:11:42.196Z,94224.66
2023-08-25T06:14:08.920Z,94229.91
2023-08-25T06:16:38.632Z,94240.97
2023-08-25T06:19:05.821Z,94236.97
2023-08-25T06:21:32.809Z,94236.75
2023-08-25T06:24:01.494Z,94243.31
2023-08-25T06:26:28.401Z,94242.88
2023-08-25T06:28:55.364Z,94240.56
2023-08-25T06:35:15.412Z,94261.94
2023-08-25T06:37:42.154Z,94251.72
2023-08-25T06:40:10.231Z,94249.25
2023-08-25T06:42:36.977Z,94245.50
2023-08-25T06:45:05.847Z,94248.88
2023-08-25T06:47:32.606Z,94266.13
2023-08-25T06:50:00.957Z,94253.06
2023-08-25T06:52:27.706Z,94259.66
2023-08-25T06:54:54.497Z,94248.78
2023-08-25T06:57:21.521Z,94261.28
2023-08-25T06:59:49.468Z,94255.16
2023-08-25T07:02:16.192Z,94253.88
2023-08-25T07:04:55.574Z,94254.63
2023-08-25T07:07:37.801Z,94267.25
2023-08-25T07:10:04.907Z,94266.09
2023-08-25T07:12:32.160Z,94287.19
2023-08-25T07:14:58.967Z,94293.38
2023-08-25T07:17:27.217Z,94291.63
2023-08-25T07:19:53.986Z,94293.75
2023-08-25T07:22:20.717Z,94287.34
2023-08-25T07:24:50.507Z,94285.28
2023-08-25T07:27:18.457Z,94287.09
2023-08-25T07:29:45.209Z,94289.22
2023-08-25T07:32:13.903Z,94283.66
2023-08-25T07:34:44.418Z,94293.03
2023-08-25T07:37:11.698Z,94287.41
2023-08-25T07:39:41.143Z,94294.69
2023-08-25T07:42:08.862Z,94287.91
2023-08-25T07:44:37.009Z,94292.53
2023-08-25T07:47:03.965Z,94301.88
2023-08-25T07:49:30.684Z,94311.09
2023-08-25T07:51:58.168Z,94309.28
2023-08-25T07:54:25.310Z,94323.06
2023-08-25T07:56:52.039Z,94337.59
2023-08-25T07:59:19.954Z,94333.63
2023-08-25T08:01:46.940Z,94334.31
2023-08-25T08:04:14.060Z,94342.09
2023-08-25T08:06:41.250Z,94335.25
2023-08-25T08:09:08.244Z,94350.97
2023-08-25T08:11:35.262Z,94367.97
2023-08-25T08:14:02.093Z,94365.16
2023-08-25T08:16:29.185Z,94371.50
2023-08-25T08:18:56.574Z,94379.44
2023-08-25T08:21:23.797Z,94387.03
2023-08-25T08:23:51.553Z,94398.06
2023-08-25T08:26:18.431Z,94408.22
2023-08-25T08:28:45.508Z,94412.81
2023-08-25T08:31:12.341Z,94423.72
2023-08-25T08:33:39.366Z,94442.59
2023-08-25T08:36:06.395Z,94438.06
2023-08-25T08:38:33.179Z,94445.25
2023-08-25T08:41:03.089Z,94453.28
2023-08-25T08:43:29.861Z,94455.31
2023-08-25T08:45:57.053Z,94465.00
2023-08-25T08:48:23.788Z,94463.50
2023-08-25T08:50:51.405Z,94465.84
2023-08-25T08:53:18.134Z,94475.03
2023-08-25T08:55:45.126Z,94479.03
2023-08-25T08:58:12.080Z,94487.72
2023-08-25T09:00:38.857Z,94491.25
2023-08-25T09:03:09.187Z,94502.28
2023-08-25T09:05:36.234Z,94505.09
2023-08-25T09:08:06.289Z,94505.34
2023-08-25T09:10:33.502Z,94497.75
2023-08-25T09:13:00.333Z,94493.84
2023-08-25T09:15:34.099Z,94480.34
2023-08-25T09:18:02.294Z,94490.47
2023-08-25T09:20:30.633Z,94494.41
2023-08-25T09:22:57.941Z,94504.53
2023-08-25T09:25:28.061Z,94517.72
2023-08-25T09:28:06.645Z,94512.03
2023-08-25T09:30:36.995Z,94509.47
2023-08-25T09:33:09.187Z,94480.28
2023-08-25T09:35:36.023Z,94490.50
2023-08-25T09:38:03.177Z,94486.66
2023-08-25T09:40:29.968Z,94502.44
2023-08-25T09:43:00.701Z,94510.84
2023-08-25T09:45:29.930Z,94518.09
2023-08-25T09:48:14.138Z,94518.72
2023-08-25T09:50:42.168Z,94498.56
2023-08-25T09:53:10.701Z,94489.06
2023-08-25T09:55:38.024Z,94500.47
2023-08-25T09:58:10.274Z,94516.88
2023-08-25T10:00:40.984Z,94505.25
2023-08-25T10:03:09.188Z,94508.66
2023-08-25T10:05:36.929Z,94511.22
2023-08-25T10:08:05.328Z,94528.19
2023-08-25T10:10:32.221Z,94518.25
2023-08-25T10:12:58.966Z,94506.72
2023-08-25T10:15:27.822Z,94491.41
2023-08-25T10:17:55.453Z,94501.81
2023-08-25T10:20:23.122Z,94497.78
2023-08-25T10:22:51.650Z,94477.03
2023-08-25T10:25:19.113Z,94474.69
2023-08-25T10:27:45.929Z,94456.88
2023-08-25T10:30:13.765Z,94458.16
2023-08-25T10:33:12.441Z,94445.00
2023-08-25T10:35:43.035Z,94446.63
2023-08-25T10:38:33.198Z,94438.69
2023-08-25T10:41:11.160Z,94432.38
2023-08-25T10:43:37.910Z,94429.16
2023-08-25T10:46:08.568Z,94430.63
2023-08-25T10:48:37.391Z,94422.56
2023-08-25T10:51:18.953Z,94412.09
2023-08-25T10:53:53.258Z,94408.03
2023-08-25T10:56:22.556Z,94398.34
2023-08-25T10:58:58.229Z,94395.69
2023-08-25T11:01:43.332Z,94394.97
2023-08-25T11:04:48.341Z,94381.28
2023-08-25T11:07:17.512Z,94379.47
2023-08-25T11:09:48.410Z,94387.09
2023-08-25T11:12:16.925Z,94373.56
2023-08-25T11:14:43.852Z,94376.84
2023-08-25T11:17:10.745Z,94355.91
2023-08-25T11:19:38.599Z,94375.94
2023-08-25T11:22:12.886Z,94376.41
2023-08-25T11:24:39.958Z,94363.50
2023-08-25T11:27:07.506Z,94348.41
2023-08-25T11:29:34.495Z,94326.66
2023-08-25T11:32:01.839Z,94350.00
2023-08-25T11:34:32.415Z,94373.66
2023-08-25T11:36:59.486Z,94372.13
2023-08-25T11:40:02.205Z,94352.19
2023-08-25T11:42:29.384Z,94353.88
2023-08-25T11:44:56.180Z,94342.47
2023-08-25T11:48:01.891Z,94326.56
2023-08-25T11:50:29.302Z,94311.72
2023-08-25T11:52:59.721Z,94311.38
2023-08-25T11:55:34.705Z,94295.97
2023-08-25T11:58:08.344Z,94285.75
2023-08-25T12:00:38.664Z,94260.66
2023-08-25T12:03:06.159Z,94281.25
2023-08-25T12:05:37.271Z,94299.72
2023-08-25T12:08:04.269Z,94291.31
2023-08-25T12:10:34.619Z,94279.16
2023-08-25T12:13:01.341Z,94275.00
2023-08-25T12:15:28.763Z,94270.16
2023-08-25T12:17:55.757Z,94235.25
2023-08-25T12:20:22.715Z,94202.78
2023-08-25T12:22:53.397Z,94200.56
2023-08-25T12:25:20.147Z,94180.94
2023-08-25T12:27:46.954Z,94170.94
2023-08-25T12:30:14.302Z,94161.16
2023-08-25T12:32:41.151Z,94154.09
2023-08-25T12:35:08.147Z,94167.47
2023-08-25T12:37:34.874Z,94167.34
2023-08-25T12:40:05.046Z,94162.34
2023-08-25T12:42:32.141Z,94163.16
2023-08-25T12:44:58.881Z,94156.94
2023-08-25T12:47:25.674Z,94144.44
2023-08-25T12:53:34.567Z,94128.25
2023-08-25T12:56:01.349Z,94122.84
2023-08-25T12:58:30.381Z,94115.97
2023-08-25T13:00:58.330Z,94106.69
2023-08-25T13:03:26.379Z,94120.47
2023-08-25T13:05:53.170Z,94118.97
2023-08-25T13:08:19.896Z,94116.94
2023-08-25T13:14:12.821Z,94101.97
2023-08-25T13:16:39.625Z,94102.84
2023-08-25T13:19:06.417Z,94104.06
2023-08-25T13:21:33.172Z,94103.94
2023-08-25T13:24:09.346Z,94102.25
2023-08-25T13:26:36.831Z,94101.31
2023-08-25T13:29:04.996Z,94092.72
2023-08-25T13:31:32.196Z,94080.25
2023-08-25T13:33:58.971Z,94070.75
2023-08-25T13:36:25.719Z,94074.91
2023-08-25T13:38:52.511Z,94074.47
2023-08-25T13:41:19.725Z,94064.00
2023-08-25T13:43:46.571Z,94069.31
2023-08-25T13:46:13.323Z,94059.38
2023-08-25T13:48:40.144Z,94046.06
2023-08-25T13:51:09.937Z,94042.88
2023-08-25T13:53:43.115Z,94032.84
2023-08-25T13:56:10.310Z,94020.28
2023-08-25T13:58:37.622Z,94017.22
2023-08-25T14:01:05.831Z,94014.56
2023-08-25T14:03:32.723Z,94009.28
2023-08-25T14:06:05.504Z,94005.28
2023-08-25T14:08:35.015Z,94007.16
2023-08-25T14:11:01.768Z,94010.38
2023-08-25T14:13:28.849Z,93983.31
2023-08-25T14:19:21.786Z,93962.56
2023-08-25T14:21:48.546Z,93972.81
2023-08-25T14:24:15.316Z,93981.41
2023-08-25T14:26:42.426Z,93971.19
2023-08-25T14:29:09.234Z,93968.88
2023-08-25T14:31:36.329Z,93952.47
2023-08-25T14:34:03.679Z,93946.56
2023-08-25T14:36:30.839Z,93930.13
2023-08-25T14:38:57.923Z,93919.50
2023-08-25T14:41:24.686Z,93922.41
2023-08-25T14:43:51.452Z,93937.34
2023-08-25T14:46:18.237Z,93930.50
2023-08-25T14:48:44.996Z,93914.56
2023-08-25T14:51:11.720Z,93902.78
2023-08-25T14:53:38.456Z,93912.03
2023-08-25T14:56:21.586Z,93916.53
2023-08-25T14:58:48.327Z,93907.66
2023-08-25T15:01:15.064Z,93903.66
2023-08-25T15:04:20.952Z,93891.31
2023-08-25T15:06:47.693Z,93893.53
2023-08-25T15:09:14.420Z,93897.78
2023-08-25T15:11:41.138Z,93891.22
2023-08-25T15:14:07.862Z,93892.22
2023-08-25T15:16:34.602Z,93898.97
2023-08-25T15:19:01.340Z,93892.47
2023-08-25T15:21:28.063Z,93893.22
2023-08-25T15:23:54.855Z,93892.59
2023-08-25T15:26:21.662Z,93894.94
2023-08-25T15:28:48.498Z,93899.03
2023-08-25T15:31:15.326Z,93895.34
2023-08-25T15:33:42.269Z,93895.44
2023-08-25T15:36:10.149Z,93892.84
2023-08-25T15:38:36.969Z,93891.56
2023-08-25T15:41:07.887Z,93893.81
2023-08-25T15:43:35.185Z,93885.00
2023-08-25T15:46:02.020Z,93895.44
2023-08-25T15:48:29.396Z,93892.09
2023-08-25T15:50:56.343Z,93894.41
2023-08-25T15:53:24.183Z,93903.50
2023-08-25T15:55:51.291Z,93903.50
2023-08-25T15:58:18.419Z,93888.91
2023-08-25T16:00:45.594Z,93896.84
2023-08-25T16:03:12.569Z,93900.44
2023-08-25T16:05:40.098Z,93902.88
2023-08-25T16:08:06.923Z,93910.69
2023-08-25T16:10:33.737Z,93912.78
2023-08-25T16:13:00.529Z,93910.91
2023-08-25T16:15:27.463Z,93907.13
2023-08-25T16:17:54.219Z,93908.09
2023-08-25T16:20:20.997Z,93907.88
2023-08-25T16:22:47.721Z,93914.59
2023-08-25T16:25:15.856Z,93925.34
2023-08-25T16:27:46.345Z,93943.16
2023-08-25T16:30:13.365Z,93915.81
2023-08-25T16:32:40.178Z,93925.09
2023-08-25T16:35:07.089Z,93928.56
2023-08-25T16:37:34.215Z,93938.03
2023-08-25T16:40:01.191Z,93946.00
2023-08-25T16:42:27.922Z,93934.44
2023-08-25T16:44:54.689Z,93948.75
2023-08-25T16:47:22.504Z,93934.88
2023-08-25T16:49:49.254Z,93932.72
2023-08-25T16:52:16.389Z,93920.88
2023-08-25T16:54:43.130Z,93924.50
2023-08-25T16:57:09.849Z,93907.91
2023-08-25T16:59:37.432Z,93885.53
2023-08-25T17:02:04.498Z,93870.69
2023-08-25T17:04:31.257Z,93892.16
2023-08-25T17:06:57.990Z,93881.84
2023-08-25T17:09:24.746Z,93876.28
2023-08-25T17:11:51.502Z,93870.25
2023-08-25T17:14:18.294Z,93876.25
2023-08-25T17:16:45.418Z,93875.94
2023-08-25T17:19:12.226Z,93882.03
2023-08-25T17:21:40.478Z,93875.94
2023-08-25T17:24:07.390Z,93871.03
2023-08-25T17:26:34.455Z,93873.53
2023-08-25T17:29:01.209Z,93892.94
2023-08-25T17:31:29.236Z,93893.38
2023-08-25T17:33:55.978Z,93892.22
2023-08-25T17:36:24.519Z,93887.91
2023-08-25T17:38:51.609Z,93901.56
2023-08-25T17:41:18.343Z,93907.56
2023-08-25T17:43:45.073Z,93907.34
2023-08-25T17:46:11.914Z,93904.25
2023-08-25T17:48:38.729Z,93905.59
2023-08-25T17:51:05.896Z,93912.84
2023-08-25T17:53:32.618Z,93902.84
2023-08-25T17:55:59.363Z,93922.88
2023-08-25T17:58:26.082Z,93945.63
2023-08-25T18:01:02.977Z,93963.59
2023-08-25T18:03:29.885Z,93957.84
2023-08-25T18:05:56.973Z,93957.25
2023-08-25T18:08:24.717Z,93947.38
2023-08-25T18:10:51.513Z,93954.13
2023-08-25T18:13:18.380Z,93943.50
2023-08-25T18:15:53.586Z,93936.50
2023-08-25T18:18:20.511Z,93931.28
2023-08-25T18:20:59.551Z,93940.50
2023-08-25T18:23:28.168Z,93943.53
2023-08-25T18:25:55.206Z,93954.53
2023-08-25T18:28:23.735Z,93950.22
2023-08-25T18:30:57.978Z,93944.78
2023-08-25T18:33:24.708Z,93947.97
2023-08-25T18:35:51.432Z,93958.19
2023-08-25T18:38:18.592Z,93958.66
2023-08-25T18:40:45.745Z,93945.28
2023-08-25T18:43:12.465Z,93940.56
2023-08-25T18:45:39.259Z,93942.03
2023-08-25T18:48:06.499Z,93940.88
2023-08-25T18:50:33.288Z,93936.16
2023-08-25T18:53:00.358Z,93936.81
2023-08-25T18:55:27.212Z,93955.88
2023-08-25T18:57:53.932Z,93948.31
2023-08-25T19:00:21.883Z,93946.75
2023-08-25T19:02:49.215Z,93953.47
2023-08-25T19:05:16.010Z,93969.53
2023-08-25T19:07:44.314Z,93969.13
2023-08-25T19:10:11.333Z,93973.00
2023-08-25T19:12:38.441Z,93984.34
2023-08-25T19:15:05.475Z,93987.69
2023-08-25T19:17:32.247Z,93991.84
2023-08-25T19:19:58.988Z,93995.63
2023-08-25T19:22:25.750Z,94008.66
2023-08-25T19:24:52.522Z,94018.28
2023-08-25T19:27:19.230Z,94035.38
2023-08-25T19:29:45.971Z,94031.13
2023-08-25T19:32:12.703Z,94012.75
2023-08-25T19:34:39.438Z,94017.91
2023-08-25T19:37:06.176Z,94019.97
2023-08-25T19:39:32.932Z,94032.16
2023-08-25T19:42:02.628Z,94037.34
2023-08-25T19:44:29.376Z,94035.13
2023-08-25T19:46:56.153Z,94021.84
2023-08-25T19:49:24.276Z,94014.31
2023-08-25T19:51:50.996Z,94010.78
2023-08-25T19:54:17.739Z,94001.38
2023-08-25T19:56:44.576Z,94007.78
2023-08-25T19:59:11.358Z,94012.09
2023-08-25T20:01:38.106Z,94016.16
2023-08-25T20:04:05.873Z,94027.84
2023-08-25T20:06:32.591Z,94015.81
2023-08-25T20:08:59.372Z,94024.38
2023-08-25T20:11:26.121Z,94008.00
2023-08-25T20:13:53.177Z,94025.63
2023-08-25T20:16:20.136Z,94043.94
2023-08-25T20:18:46.887Z,94069.06
2023-08-25T20:21:13.616Z,94074.75
2023-08-25T20:23:40.582Z,94077.03
2023-08-25T20:26:07.351Z,94080.91
2023-08-25T20:28:37.949Z,94085.88
2023-08-25T20:31:05.080Z,94083.00
2023-08-25T20:33:32.013Z,94075.19
2023-08-25T20:35:58.745Z,94081.38
2023-08-25T20:38:25.991Z,94078.53
2023-08-25T20:40:56.364Z,94071.06
2023-08-25T20:43:23.577Z,94071.94
2023-08-25T20:45:52.604Z,94066.13
2023-08-25T20:48:19.454Z,94075.44
2023-08-25T20:50:49.282Z,94076.38
2023-08-25T20:53:16.237Z,94085.78
2023-08-25T20:55:43.350Z,94092.19
2023-08-25T20:58:10.130Z,94088.97
2023-08-25T21:00:37.211Z,94081.06
2023-08-25T21:03:04.230Z,94088.19
2023-08-25T21:05:31.376Z,94086.66
2023-08-25T21:07:58.187Z,94079.91
2023-08-25T21:10:24.973Z,94082.34
2023-08-25T21:12:52.059Z,94082.50
2023-08-25T21:15:18.778Z,94087.22
2023-08-25T21:17:45.601Z,94073.75
2023-08-25T21:20:12.488Z,94085.41
2023-08-25T21:22:39.247Z,94099.34
2023-08-25T21:25:06.170Z,94106.44
2023-08-25T21:27:32.943Z,94111.38
2023-08-25T21:29:59.741Z,94112.88
2023-08-25T21:32:26.561Z,94114.84
2023-08-25T21:34:53.325Z,94103.41
2023-08-25T21:37:20.471Z,94111.22
2023-08-25T21:39:48.369Z,94107.69
2023-08-25T21:42:15.462Z,94117.66
2023-08-25T21:45:01.878Z,94122.38
2023-08-25T21:47:28.721Z,94121.22
2023-08-25T21:49:55.480Z,94127.44
2023-08-25T21:52:23.330Z,94128.91
2023-08-25T21:54:50.053Z,94132.50
2023-08-25T21:57:17.934Z,94137.38
2023-08-25T21:59:45.083Z,94137.31
2023-08-25T22:02:11.863Z,94135.97
2023-08-25T22:04:39.680Z,94146.19
2023-08-25T22:07:06.404Z,94143.13
2023-08-25T22:09:33.641Z,94126.75
2023-08-25T22:12:00.738Z,94139.00
2023-08-25T22:14:27.602Z,94127.72
2023-08-25T22:16:54.357Z,94125.41
2023-08-25T22:19:21.462Z,94134.97
2023-08-25T22:21:48.202Z,94135.34
2023-08-25T22:24:14.954Z,94126.81
2023-08-25T22:26:41.657Z,94123.56
2023-08-25T22:29:10.514Z,94116.88
2023-08-25T22:31:37.347Z,94120.13
2023-08-25T22:36:34.588Z,94124.09
2023-08-25T22:39:02.501Z,94120.50
2023-08-25T22:41:29.214Z,94120.22
2023-08-25T22:43:55.969Z,94128.47
2023-08-25T22:46:24.234Z,94116.03
2023-08-25T22:48:51.014Z,94117.78
2023-08-25T22:51:20.650Z,94115.50
2023-08-25T22:53:47.365Z,94122.00
2023-08-25T22:56:14.141Z,94116.09
2023-08-25T22:58:41.148Z,94120.06
2023-08-25T23:01:08.170Z,94118.38
2023-08-25T23:03:35.396Z,94122.78
2023-08-25T23:06:02.823Z,94122.78
2023-08-25T23:08:29.609Z,94117.38
2023-08-25T23:10:56.338Z,94110.16
2023-08-25T23:13:23.088Z,94111.31
2023-08-25T23:15:49.855Z,94112.66
2023-08-25T23:18:17.944Z,94112.69
2023-08-25T23:20:44.738Z,94121.44
2023-08-25T23:23:11.474Z,94120.50
2023-08-25T23:25:39.219Z,94135.91
2023-08-25T23:28:06.061Z,94133.63
2023-08-25T23:30:34.601Z,94137.84
2023-08-25T23:33:03.504Z,94142.06
2023-08-25T23:35:34.932Z,94149.34
2023-08-25T23:38:03.135Z,94156.78
2023-08-25T23:40:29.875Z,94156.97
2023-08-25T23:42:56.612Z,94156.00
2023-08-25T23:45:23.480Z,94151.66
2023-08-25T23:47:50.340Z,94155.25
2023-08-25T23:50:17.153Z,94147.44
2023-08-25T23:52:43.893Z,94152.38
2023-08-25T23:55:10.606Z,94157.16
2023-08-25T23:57:37.368Z,94144.75
